Time;durP1;ratioP1;P1;durP2;ratioP2;P2;SDS_P1;SDS_P2;PMS_P1;PMS_P2;Temp;Humidity;BMP_temperature;BMP_pressure;BME280_temperature;BME280_humidity;BME280_pressure;Samples;Min_cycle;Max_cycle;Signal;HPM_P1;HPM_P2
2022/01/11 00:00:27;;;;;;;0.70;0.40;;;;;;;;;;5049929;28;20021;-68
2022/01/11 00:02:54;;;;;;;1.88;0.28;;;;;;;;;;5049745;28;20087;-68
2022/01/11 00:05:27;;;;;;;0.85;0.68;;;;;;;;;;5049400;28;20335;-67
2022/01/11 00:07:53;;;;;;;0.22;0.10;;;;;;;;;;5049743;28;20062;-68
2022/01/11 00:10:31;;;;;;;1.25;0.30;;;;;;;;;;5049730;28;20035;-69
2022/01/11 00:12:57;;;;;;;1.50;0.30;;;;;;;;;;5034339;28;20033;-68
2022/01/11 00:15:22;;;;;;;0.25;0.10;;;;;;;;;;5029616;28;20067;-68
2022/01/11 00:17:47;;;;;;;0.30;0.20;;;;;;;;;;5029744;28;20076;-68
2022/01/11 00:20:15;;;;;;;0.67;0.20;;;;;;;;;;5029656;28;20117;-67
2022/01/11 00:24:26;;;;;;;1.20;0.28;;;;;;;;;;5029818;28;20255;-68
2022/01/11 00:25:26;;;;;;;1.83;0.22;;;;;;;;;;5032808;28;20029;-67
2022/01/11 00:27:51;;;;;;;0.80;0.20;;;;;;;;;;5033728;28;20457;-68
2022/01/11 00:30:16;;;;;;;0.90;0.20;;;;;;;;;;5036219;28;20021;-67
2022/01/11 00:32:47;;;;;;;0.60;0.10;;;;;;;;;;5056168;28;20288;-67
2022/01/11 00:35:16;;;;;;;0.40;0.20;;;;;;;;;;5055883;28;20416;-68
2022/01/11 00:37:42;;;;;;;1.05;0.20;;;;;;;;;;5055970;28;20053;-68
2022/01/11 00:40:08;;;;;;;0.98;0.52;;;;;;;;;;5055830;28;20423;-68
2022/01/11 00:42:34;;;;;;;2.00;0.38;;;;;;;;;;5055678;28;20017;-67
2022/01/11 00:44:59;;;;;;;0.38;0.15;;;;;;;;;;5054415;28;20068;-67
2022/01/11 00:47:24;;;;;;;0.87;0.30;;;;;;;;;;5055977;28;20092;-68
2022/01/11 00:49:51;;;;;;;1.45;0.30;;;;;;;;;;5054462;28;20629;-67
2022/01/11 00:52:16;;;;;;;0.43;0.22;;;;;;;;;;5055623;28;20066;-67
2022/01/11 00:54:42;;;;;;;0.30;0.17;;;;;;;;;;5055776;28;20029;-68
2022/01/11 00:57:07;;;;;;;0.40;0.32;;;;;;;;;;5055241;28;20270;-67
2022/01/11 00:59:32;;;;;;;0.63;0.10;;;;;;;;;;5055515;28;20032;-68
2022/01/11 01:01:57;;;;;;;0.20;0.10;;;;;;;;;;5055336;28;20051;-68
2022/01/11 01:04:23;;;;;;;0.95;0.25;;;;;;;;;;5055333;28;20088;-67
2022/01/11 01:06:48;;;;;;;0.60;0.25;;;;;;;;;;5055477;28;20079;-67
2022/01/11 01:09:13;;;;;;;1.40;0.43;;;;;;;;;;5055028;28;20064;-68
2022/01/11 01:11:38;;;;;;;0.90;0.30;;;;;;;;;;5055067;28;20254;-67
2022/01/11 01:14:04;;;;;;;0.45;0.30;;;;;;;;;;5055159;28;20025;-67
2022/01/11 01:16:29;;;;;;;0.93;0.27;;;;;;;;;;5055246;28;20059;-67
2022/01/11 01:18:54;;;;;;;0.40;0.20;;;;;;;;;;5055108;28;20601;-67
2022/01/11 01:21:19;;;;;;;0.77;0.35;;;;;;;;;;5055293;28;20242;-67
2022/01/11 01:23:45;;;;;;;1.08;0.20;;;;;;;;;;5055311;28;20035;-67
2022/01/11 01:26:11;;;;;;;0.88;0.30;;;;;;;;;;5054900;28;20025;-67
2022/01/11 01:28:36;;;;;;;0.93;0.40;;;;;;;;;;5055121;28;20070;-67
2022/01/11 01:31:01;;;;;;;0.77;0.30;;;;;;;;;;5054810;28;20040;-67
2022/01/11 01:33:28;;;;;;;0.32;0.17;;;;;;;;;;5054823;28;20163;-67
2022/01/11 01:35:59;;;;;;;0.85;0.28;;;;;;;;;;5053956;28;20028;-67
2022/01/11 01:38:24;;;;;;;0.45;0.20;;;;;;;;;;5054840;28;20040;-68
2022/01/11 01:40:51;;;;;;;0.43;0.30;;;;;;;;;;5054624;28;20407;-68
2022/01/11 01:43:16;;;;;;;0.88;0.20;;;;;;;;;;5054435;28;20020;-67
2022/01/11 01:45:43;;;;;;;0.95;0.30;;;;;;;;;;5054704;28;20020;-68
2022/01/11 01:48:09;;;;;;;0.10;0.10;;;;;;;;;;5054590;28;20020;-69
2022/01/11 01:50:34;;;;;;;0.63;0.30;;;;;;;;;;5054634;28;20020;-69
2022/01/11 01:53:00;;;;;;;0.20;0.10;;;;;;;;;;5054433;28;20029;-67
2022/01/11 01:55:26;;;;;;;0.68;0.35;;;;;;;;;;5054462;28;20028;-67
2022/01/11 01:57:51;;;;;;;1.20;0.13;;;;;;;;;;5054461;28;20043;-67
2022/01/11 02:00:17;;;;;;;1.05;0.28;;;;;;;;;;5054317;28;20013;-67
2022/01/11 02:02:42;;;;;;;0.38;0.10;;;;;;;;;;5054446;28;20043;-67
2022/01/11 02:05:08;;;;;;;0.43;0.20;;;;;;;;;;5061484;23;20603;-67
2022/01/11 02:07:33;;;;;;;0.47;0.10;;;;;;;;;;5054276;28;20242;-68
2022/01/11 02:10:01;;;;;;;0.60;0.22;;;;;;;;;;5053999;28;20025;-68
2022/01/11 02:12:26;;;;;;;0.63;0.22;;;;;;;;;;5053514;28;20032;-68
2022/01/11 02:14:51;;;;;;;0.50;0.10;;;;;;;;;;5054092;28;20029;-67
2022/01/11 02:17:16;;;;;;;0.95;0.38;;;;;;;;;;5053874;28;20029;-68
2022/01/11 02:19:42;;;;;;;0.40;0.22;;;;;;;;;;5054070;28;20033;-67
2022/01/11 02:22:07;;;;;;;0.20;0.20;;;;;;;;;;5053928;28;20346;-68
2022/01/11 02:24:33;;;;;;;0.70;0.22;;;;;;;;;;5054029;28;20256;-67
2022/01/11 02:26:58;;;;;;;0.35;0.10;;;;;;;;;;5053740;28;20025;-67
2022/01/11 02:29:24;;;;;;;0.47;0.30;;;;;;;;;;5053811;28;20109;-68
2022/01/11 02:31:49;;;;;;;0.47;0.17;;;;;;;;;;5052120;28;20278;-68
2022/01/11 02:34:14;;;;;;;0.35;0.15;;;;;;;;;;5053660;28;20017;-68
2022/01/11 02:36:40;;;;;;;0.85;0.20;;;;;;;;;;5053700;28;20075;-68
2022/01/11 02:39:05;;;;;;;0.67;0.20;;;;;;;;;;5053476;28;20028;-68
2022/01/11 02:41:30;;;;;;;0.25;0.10;;;;;;;;;;5053547;28;20262;-68
2022/01/11 02:43:57;;;;;;;0.40;0.13;;;;;;;;;;5053422;28;20025;-68
2022/01/11 02:46:23;;;;;;;2.20;0.30;;;;;;;;;;5053549;28;20104;-67
2022/01/11 02:48:49;;;;;;;0.45;0.22;;;;;;;;;;5052453;28;20096;-67
2022/01/11 02:51:17;;;;;;;0.47;0.22;;;;;;;;;;5052978;28;20527;-67
2022/01/11 02:53:43;;;;;;;0.30;0.13;;;;;;;;;;5053375;28;20028;-67
2022/01/11 02:56:08;;;;;;;1.67;0.30;;;;;;;;;;5053186;28;20059;-68
2022/01/11 02:58:34;;;;;;;0.57;0.17;;;;;;;;;;5053341;28;20021;-68
2022/01/11 03:00:59;;;;;;;0.63;0.23;;;;;;;;;;5052424;28;20496;-68
2022/01/11 03:03:25;;;;;;;1.17;0.20;;;;;;;;;;5053115;28;20289;-67
2022/01/11 03:05:54;;;;;;;1.05;0.30;;;;;;;;;;5052973;28;20277;-67
2022/01/11 03:08:20;;;;;;;0.20;0.10;;;;;;;;;;5053100;28;20013;-67
2022/01/11 03:10:47;;;;;;;0.40;0.20;;;;;;;;;;5050339;28;20488;-67
2022/01/11 03:13:12;;;;;;;1.10;0.20;;;;;;;;;;5032822;28;20025;-68
2022/01/11 03:15:38;;;;;;;0.43;0.15;;;;;;;;;;5032943;28;20020;-68
2022/01/11 03:18:04;;;;;;;1.38;0.32;;;;;;;;;;5032904;28;20029;-68
2022/01/11 03:20:29;;;;;;;1.45;0.10;;;;;;;;;;5033022;28;20067;-68
2022/01/11 03:22:54;;;;;;;0.28;0.15;;;;;;;;;;5032830;28;20513;-67
2022/01/11 03:25:20;;;;;;;0.20;0.20;;;;;;;;;;5032814;28;20040;-67
2022/01/11 03:27:46;;;;;;;0.43;0.20;;;;;;;;;;5032928;28;20041;-68
2022/01/11 03:30:11;;;;;;;0.30;0.10;;;;;;;;;;5032747;28;20250;-68
2022/01/11 03:32:37;;;;;;;1.17;0.22;;;;;;;;;;5051044;28;20495;-68
2022/01/11 03:35:04;;;;;;;0.43;0.20;;;;;;;;;;5052363;28;20031;-68
2022/01/11 03:37:29;;;;;;;0.75;0.20;;;;;;;;;;5052544;28;20028;-68
2022/01/11 03:39:54;;;;;;;1.00;0.25;;;;;;;;;;5052540;28;20017;-68
2022/01/11 03:42:19;;;;;;;1.50;0.30;;;;;;;;;;5052476;28;20110;-67
2022/01/11 03:44:45;;;;;;;0.68;0.20;;;;;;;;;;5052636;28;20580;-68
2022/01/11 03:47:10;;;;;;;0.38;0.25;;;;;;;;;;5052214;28;20029;-67
2022/01/11 03:49:35;;;;;;;0.20;0.10;;;;;;;;;;5052491;28;20040;-67
2022/01/11 03:52:00;;;;;;;1.33;0.35;;;;;;;;;;5052260;28;20300;-67
2022/01/11 03:54:29;;;;;;;0.63;0.40;;;;;;;;;;5052456;28;20029;-68
2022/01/11 03:56:55;;;;;;;1.13;0.20;;;;;;;;;;5052267;28;20075;-68
2022/01/11 03:59:21;;;;;;;0.55;0.22;;;;;;;;;;5052103;28;20029;-67
2022/01/11 04:01:46;;;;;;;1.40;0.38;;;;;;;;;;5051685;28;20025;-68
2022/01/11 04:04:12;;;;;;;1.40;0.28;;;;;;;;;;5051907;28;20116;-68
2022/01/11 04:06:37;;;;;;;0.35;0.20;;;;;;;;;;5047487;28;20117;-69
2022/01/11 04:09:04;;;;;;;0.28;0.10;;;;;;;;;;5031931;28;20036;-68
2022/01/11 04:11:29;;;;;;;0.47;0.28;;;;;;;;;;5030958;28;20051;-68
2022/01/11 04:13:54;;;;;;;0.50;0.17;;;;;;;;;;5032111;28;20521;-68
2022/01/11 04:16:19;;;;;;;0.40;0.30;;;;;;;;;;5032123;28;20573;-67
2022/01/11 04:18:44;;;;;;;0.43;0.10;;;;;;;;;;5032298;28;20305;-68
2022/01/11 04:21:10;;;;;;;0.77;0.35;;;;;;;;;;5031956;28;20239;-67
2022/01/11 04:23:35;;;;;;;0.95;0.32;;;;;;;;;;5032070;28;20059;-68
2022/01/11 04:26:01;;;;;;;0.98;0.30;;;;;;;;;;5032000;28;20071;-68
2022/01/11 04:28:27;;;;;;;0.63;0.43;;;;;;;;;;5032146;28;20461;-68
2022/01/11 04:30:53;;;;;;;0.10;0.10;;;;;;;;;;5035434;28;20021;-68
2022/01/11 04:33:18;;;;;;;0.50;0.28;;;;;;;;;;5051429;28;20357;-68
2022/01/11 04:35:48;;;;;;;1.00;0.35;;;;;;;;;;5051831;28;20025;-67
2022/01/11 04:38:13;;;;;;;1.27;0.25;;;;;;;;;;5052119;28;20024;-68
2022/01/11 04:40:38;;;;;;;0.60;0.30;;;;;;;;;;5050678;28;20369;-67
2022/01/11 04:43:04;;;;;;;1.00;0.30;;;;;;;;;;5038087;28;20265;-67
2022/01/11 04:45:29;;;;;;;0.60;0.20;;;;;;;;;;5031856;28;20258;-67
2022/01/11 04:47:56;;;;;;;0.52;0.30;;;;;;;;;;5031806;28;20777;-67
2022/01/11 04:50:22;;;;;;;0.25;0.20;;;;;;;;;;5031840;28;20021;-67
2022/01/11 04:52:48;;;;;;;0.82;0.10;;;;;;;;;;5032257;28;20109;-67
2022/01/11 04:55:13;;;;;;;1.47;0.30;;;;;;;;;;5031488;28;20057;-67
2022/01/11 04:57:38;;;;;;;0.55;0.32;;;;;;;;;;5031755;28;20243;-67
2022/01/11 05:00:04;;;;;;;0.28;0.10;;;;;;;;;;5031774;28;20025;-67
2022/01/11 05:02:29;;;;;;;0.45;0.20;;;;;;;;;;5047695;28;20029;-68
2022/01/11 05:04:54;;;;;;;0.73;0.20;;;;;;;;;;5051490;28;20072;-67
2022/01/11 05:07:19;;;;;;;0.40;0.10;;;;;;;;;;5051752;28;20029;-67
2022/01/11 05:09:45;;;;;;;1.23;0.20;;;;;;;;;;5051620;28;20472;-67
2022/01/11 05:12:10;;;;;;;0.50;0.10;;;;;;;;;;5054211;28;20028;-68
2022/01/11 05:14:35;;;;;;;0.30;0.10;;;;;;;;;;5054078;28;20036;-67
2022/01/11 05:17:00;;;;;;;2.63;0.43;;;;;;;;;;5055325;28;20017;-68
2022/01/11 05:19:25;;;;;;;0.40;0.10;;;;;;;;;;5055497;28;20025;-68
2022/01/11 05:21:50;;;;;;;0.47;0.10;;;;;;;;;;5055154;28;20492;-67
2022/01/11 05:24:16;;;;;;;0.30;0.23;;;;;;;;;;5055253;28;20248;-67
2022/01/11 05:26:41;;;;;;;0.50;0.30;;;;;;;;;;5055185;28;20039;-68
2022/01/11 05:29:06;;;;;;;0.43;0.20;;;;;;;;;;5054849;28;20303;-68
2022/01/11 05:31:35;;;;;;;1.00;0.20;;;;;;;;;;5043863;28;20350;-67
2022/01/11 05:34:00;;;;;;;0.40;0.10;;;;;;;;;;5034824;28;20279;-67
2022/01/11 05:36:25;;;;;;;0.90;0.10;;;;;;;;;;5034998;28;20064;-67
2022/01/11 05:38:50;;;;;;;0.83;0.30;;;;;;;;;;5034982;28;20057;-68
2022/01/11 05:41:15;;;;;;;0.83;0.53;;;;;;;;;;5034937;28;20370;-67
2022/01/11 05:43:41;;;;;;;0.63;0.10;;;;;;;;;;5034768;28;20296;-67
2022/01/11 05:46:06;;;;;;;0.33;0.20;;;;;;;;;;5034668;28;20052;-67
2022/01/11 05:48:32;;;;;;;1.13;0.17;;;;;;;;;;5034707;28;20246;-67
2022/01/11 05:50:58;;;;;;;0.95;0.40;;;;;;;;;;5034558;28;20028;-67
2022/01/11 05:53:23;;;;;;;0.52;0.10;;;;;;;;;;5034555;28;20017;-68
2022/01/11 05:55:48;;;;;;;0.73;0.20;;;;;;;;;;5034530;28;20029;-67
2022/01/11 05:58:14;;;;;;;0.60;0.30;;;;;;;;;;5033129;28;20251;-67
2022/01/11 06:00:39;;;;;;;0.40;0.20;;;;;;;;;;5037583;28;20349;-67
2022/01/11 06:03:04;;;;;;;0.10;0.10;;;;;;;;;;5054220;28;20260;-68
2022/01/11 06:05:31;;;;;;;0.20;0.10;;;;;;;;;;5054123;28;20633;-68
2022/01/11 06:07:57;;;;;;;1.35;0.52;;;;;;;;;;5054185;28;20049;-68
2022/01/11 06:10:22;;;;;;;0.50;0.20;;;;;;;;;;5053968;28;20107;-67
2022/01/11 06:12:47;;;;;;;1.15;0.10;;;;;;;;;;5039816;28;20259;-67
2022/01/11 06:15:12;;;;;;;0.45;0.20;;;;;;;;;;5034150;28;20043;-67
2022/01/11 06:17:38;;;;;;;0.57;0.28;;;;;;;;;;5034250;28;20014;-68
2022/01/11 06:20:04;;;;;;;1.13;0.32;;;;;;;;;;5032632;28;20358;-67
2022/01/11 06:22:29;;;;;;;0.50;0.20;;;;;;;;;;5033752;28;20344;-67
2022/01/11 06:24:54;;;;;;;0.47;0.20;;;;;;;;;;5033921;28;20047;-67
2022/01/11 06:27:19;;;;;;;1.00;0.10;;;;;;;;;;5033722;28;20060;-68
2022/01/11 06:29:44;;;;;;;0.50;0.10;;;;;;;;;;5033853;28;20710;-70
2022/01/11 06:32:10;;;;;;;0.77;0.35;;;;;;;;;;5045367;28;20025;-66
2022/01/11 06:34:35;;;;;;;0.52;0.20;;;;;;;;;;5034326;28;20029;-67
2022/01/11 06:37:00;;;;;;;0.30;0.17;;;;;;;;;;5033481;28;20033;-67
2022/01/11 06:39:26;;;;;;;0.88;0.20;;;;;;;;;;5031296;28;20356;-68
2022/01/11 06:41:51;;;;;;;0.40;0.10;;;;;;;;;;5030268;28;20408;-68
2022/01/11 06:44:16;;;;;;;1.03;0.30;;;;;;;;;;5033634;28;20047;-67
2022/01/11 06:46:41;;;;;;;0.50;0.15;;;;;;;;;;5029413;28;20326;-68
2022/01/11 06:49:06;;;;;;;0.50;0.20;;;;;;;;;;5029154;28;20097;-65
2022/01/11 06:51:32;;;;;;;0.68;0.25;;;;;;;;;;5030131;28;20037;-66
2022/01/11 06:53:57;;;;;;;1.43;0.20;;;;;;;;;;5030937;28;20036;-67
2022/01/11 06:56:22;;;;;;;0.83;0.50;;;;;;;;;;5033108;28;20266;-67
2022/01/11 06:58:48;;;;;;;1.48;0.30;;;;;;;;;;5033065;28;20025;-65
2022/01/11 07:01:13;;;;;;;0.50;0.17;;;;;;;;;;5031620;28;20029;-66
2022/01/11 07:03:38;;;;;;;0.98;0.40;;;;;;;;;;5032916;28;20259;-65
2022/01/11 07:06:03;;;;;;;0.60;0.30;;;;;;;;;;5030655;28;20029;-65
2022/01/11 07:08:28;;;;;;;1.50;0.30;;;;;;;;;;5032990;28;20021;-66
2022/01/11 07:10:54;;;;;;;1.73;0.40;;;;;;;;;;5028562;28;20163;-66
2022/01/11 07:13:19;;;;;;;0.98;0.22;;;;;;;;;;5030048;28;20035;-66
2022/01/11 07:15:44;;;;;;;1.27;0.30;;;;;;;;;;5030249;28;20029;-66
2022/01/11 07:18:10;;;;;;;1.63;0.40;;;;;;;;;;5032798;28;20030;-65
2022/01/11 07:20:37;;;;;;;0.60;0.52;;;;;;;;;;5031715;28;20258;-67
2022/01/11 07:23:02;;;;;;;0.43;0.20;;;;;;;;;;5031701;28;20017;-65
2022/01/11 07:25:30;;;;;;;1.30;0.70;;;;;;;;;;5031327;28;20069;-66
2022/01/11 07:27:55;;;;;;;1.10;0.40;;;;;;;;;;5032601;28;20267;-67
2022/01/11 07:30:21;;;;;;;1.38;0.25;;;;;;;;;;5032631;28;20029;-67
2022/01/11 07:32:46;;;;;;;1.00;0.30;;;;;;;;;;5032502;28;20147;-66
2022/01/11 07:35:11;;;;;;;1.93;0.60;;;;;;;;;;5030449;28;20036;-66
2022/01/11 07:37:36;;;;;;;0.22;0.20;;;;;;;;;;5032285;28;20292;-65
2022/01/11 07:40:02;;;;;;;0.35;0.20;;;;;;;;;;5031247;28;20100;-65
2022/01/11 07:42:27;;;;;;;1.20;0.25;;;;;;;;;;5030204;28;20021;-66
2022/01/11 07:44:54;;;;;;;0.57;0.10;;;;;;;;;;5030507;28;20097;-67
2022/01/11 07:47:19;;;;;;;0.80;0.25;;;;;;;;;;5031012;28;20274;-68
2022/01/11 07:49:44;;;;;;;1.20;0.15;;;;;;;;;;5029521;28;20037;-66
2022/01/11 07:52:09;;;;;;;0.55;0.20;;;;;;;;;;5027142;28;20031;-66
2022/01/11 07:54:35;;;;;;;0.90;0.20;;;;;;;;;;5032233;28;20030;-66
2022/01/11 07:57:00;;;;;;;1.10;0.53;;;;;;;;;;5027913;28;20282;-65
2022/01/11 07:59:25;;;;;;;0.63;0.20;;;;;;;;;;5030107;28;20278;-66
2022/01/11 08:01:50;;;;;;;0.80;0.52;;;;;;;;;;5030566;28;20025;-66
2022/01/11 08:04:15;;;;;;;1.13;0.40;;;;;;;;;;5029873;28;20084;-67
2022/01/11 08:06:41;;;;;;;0.73;0.15;;;;;;;;;;5028819;28;20281;-66
2022/01/11 08:09:07;;;;;;;1.10;0.33;;;;;;;;;;5026895;28;20061;-66
2022/01/11 08:11:33;;;;;;;0.68;0.30;;;;;;;;;;5032472;28;20255;-66
2022/01/11 08:13:58;;;;;;;1.92;0.40;;;;;;;;;;5046500;28;20047;-66
2022/01/11 08:16:23;;;;;;;1.33;0.40;;;;;;;;;;5036676;28;20111;-66
2022/01/11 08:18:48;;;;;;;0.77;0.28;;;;;;;;;;5043643;28;20250;-65
2022/01/11 08:21:13;;;;;;;1.23;0.10;;;;;;;;;;5042471;28;20472;-66
2022/01/11 08:23:39;;;;;;;0.20;0.20;;;;;;;;;;5036463;28;20286;-66
2022/01/11 08:26:05;;;;;;;1.23;0.50;;;;;;;;;;5048057;28;20032;-66
2022/01/11 08:28:30;;;;;;;0.52;0.15;;;;;;;;;;5037979;28;20285;-66
2022/01/11 08:30:57;;;;;;;1.60;0.30;;;;;;;;;;5041555;28;20052;-66
2022/01/11 08:33:22;;;;;;;0.40;0.15;;;;;;;;;;5044727;28;20050;-66
2022/01/11 08:35:47;;;;;;;0.20;0.10;;;;;;;;;;5035181;28;20291;-66
2022/01/11 08:38:13;;;;;;;0.67;0.40;;;;;;;;;;5048256;28;20480;-65
2022/01/11 08:40:38;;;;;;;0.60;0.10;;;;;;;;;;5037908;28;20321;-66
2022/01/11 08:43:04;;;;;;;0.73;0.20;;;;;;;;;;5046770;28;20096;-67
2022/01/11 08:45:30;;;;;;;0.90;0.28;;;;;;;;;;5038774;28;20250;-65
2022/01/11 08:47:55;;;;;;;0.40;0.15;;;;;;;;;;5044693;28;20061;-66
2022/01/11 08:50:20;;;;;;;1.30;0.25;;;;;;;;;;5036596;28;20020;-67
2022/01/11 08:52:46;;;;;;;1.80;0.20;;;;;;;;;;5034687;28;20041;-67
2022/01/11 08:55:11;;;;;;;0.75;0.45;;;;;;;;;;5037447;28;20025;-67
2022/01/11 08:57:37;;;;;;;0.73;0.30;;;;;;;;;;5034093;28;20412;-67
2022/01/11 09:00:06;;;;;;;0.30;0.10;;;;;;;;;;5035528;28;20029;-67
2022/01/11 09:02:35;;;;;;;0.57;0.30;;;;;;;;;;5034715;28;20372;-66
2022/01/11 09:05:00;;;;;;;0.43;0.17;;;;;;;;;;5038038;28;20392;-66
2022/01/11 09:07:25;;;;;;;0.38;0.10;;;;;;;;;;5032815;28;20461;-66
2022/01/11 09:09:50;;;;;;;0.35;0.10;;;;;;;;;;5034201;28;20033;-66
2022/01/11 09:12:15;;;;;;;0.47;0.40;;;;;;;;;;5050811;28;20044;-66
2022/01/11 09:14:41;;;;;;;0.28;0.20;;;;;;;;;;5042311;28;20085;-66
2022/01/11 09:17:07;;;;;;;0.43;0.10;;;;;;;;;;5043800;28;20411;-66
2022/01/11 09:19:32;;;;;;;0.98;0.20;;;;;;;;;;5049271;28;20016;-66
2022/01/11 09:21:58;;;;;;;0.82;0.30;;;;;;;;;;5037308;28;20614;-66
2022/01/11 09:24:29;;;;;;;0.93;0.40;;;;;;;;;;5049775;28;20020;-67
2022/01/11 09:26:55;;;;;;;1.42;0.30;;;;;;;;;;5043624;28;20092;-64
2022/01/11 09:29:21;;;;;;;3.50;0.85;;;;;;;;;;5039819;28;20022;-67
2022/01/11 09:31:46;;;;;;;0.30;0.03;;;;;;;;;;5046467;28;20028;-72
2022/01/11 09:34:11;;;;;;;0.77;0.22;;;;;;;;;;5040755;28;20040;-63
2022/01/11 09:36:37;;;;;;;2.10;0.20;;;;;;;;;;5047829;28;20111;-68
2022/01/11 09:39:03;;;;;;;0.47;0.20;;;;;;;;;;5044629;28;20471;-63
2022/01/11 09:41:28;;;;;;;0.32;0.10;;;;;;;;;;5039667;28;20362;-62
2022/01/11 09:43:57;;;;;;;0.47;0.30;;;;;;;;;;5033284;28;20026;-61
2022/01/11 09:46:23;;;;;;;0.30;0.10;;;;;;;;;;5035923;28;20092;-63
2022/01/11 09:48:49;;;;;;;0.35;0.15;;;;;;;;;;5045079;28;20376;-71
2022/01/11 09:51:14;;;;;;;1.02;0.40;;;;;;;;;;5045611;28;20468;-69
2022/01/11 09:53:40;;;;;;;1.52;0.22;;;;;;;;;;5038274;28;20029;-70
2022/01/11 09:56:06;;;;;;;1.88;0.50;;;;;;;;;;5050315;28;20028;-70
2022/01/11 09:58:32;;;;;;;0.57;0.22;;;;;;;;;;5035786;28;20023;-68
2022/01/11 10:00:58;;;;;;;1.10;0.40;;;;;;;;;;5032829;28;20060;-70
2022/01/11 10:03:23;;;;;;;1.27;0.50;;;;;;;;;;5033812;28;20437;-70
2022/01/11 10:05:48;;;;;;;1.35;0.50;;;;;;;;;;5034699;28;20294;-70
2022/01/11 10:08:19;;;;;;;1.20;0.32;;;;;;;;;;5036630;28;20029;-71
2022/01/11 10:10:45;;;;;;;0.55;0.40;;;;;;;;;;5027472;28;20025;-72
2022/01/11 10:13:26;;;;;;;0.80;0.30;;;;;;;;;;5029196;28;20040;-71
2022/01/11 10:15:51;;;;;;;0.82;0.30;;;;;;;;;;5031599;28;20044;-68
2022/01/11 10:18:36;;;;;;;1.60;0.50;;;;;;;;;;5032662;28;20461;-70
2022/01/11 10:21:04;;;;;;;0.70;0.15;;;;;;;;;;5029706;28;20645;-71
2022/01/11 10:23:33;;;;;;;0.57;0.20;;;;;;;;;;5032556;28;20021;-71
2022/01/11 10:25:59;;;;;;;0.63;0.63;;;;;;;;;;5031208;28;20152;-70
2022/01/11 10:28:34;;;;;;;0.60;0.20;;;;;;;;;;5032481;28;20105;-71
2022/01/11 10:30:59;;;;;;;0.55;0.22;;;;;;;;;;5032423;28;20037;-69
2022/01/11 10:33:24;;;;;;;0.53;0.40;;;;;;;;;;5032505;28;20017;-69
2022/01/11 10:35:49;;;;;;;0.50;0.20;;;;;;;;;;5026050;28;20286;-72
2022/01/11 10:38:23;;;;;;;0.93;0.30;;;;;;;;;;5041893;28;20337;-69
2022/01/11 10:40:48;;;;;;;1.95;0.30;;;;;;;;;;5027820;28;20366;-71
2022/01/11 10:43:15;;;;;;;0.90;0.28;;;;;;;;;;5030307;28;20429;-67
2022/01/11 10:45:41;;;;;;;1.30;0.57;;;;;;;;;;5026726;28;20029;-71
2022/01/11 10:48:17;;;;;;;1.55;0.40;;;;;;;;;;5030389;28;20148;-70
2022/01/11 10:50:43;;;;;;;0.68;0.38;;;;;;;;;;5032215;28;20029;-70
2022/01/11 10:53:22;;;;;;;0.50;0.30;;;;;;;;;;5032496;28;20107;-69
2022/01/11 10:55:48;;;;;;;0.65;0.22;;;;;;;;;;5031431;28;20029;-70
2022/01/11 10:58:13;;;;;;;1.85;0.52;;;;;;;;;;5031149;28;20025;-72
2022/01/11 11:00:42;;;;;;;1.13;0.28;;;;;;;;;;5033098;28;20021;-70
2022/01/11 11:03:12;;;;;;;1.00;0.40;;;;;;;;;;5032013;28;20021;-70
2022/01/11 11:05:38;;;;;;;0.95;0.47;;;;;;;;;;5042541;28;20157;-67
2022/01/11 11:08:17;;;;;;;1.20;0.30;;;;;;;;;;5035237;28;20028;-70
2022/01/11 11:10:47;;;;;;;0.43;0.30;;;;;;;;;;5020613;28;20104;-70
2022/01/11 11:13:26;;;;;;;0.68;0.20;;;;;;;;;;5044083;28;20539;-69
2022/01/11 11:15:52;;;;;;;1.75;0.30;;;;;;;;;;5044494;28;20035;-69
2022/01/11 11:18:32;;;;;;;1.48;0.30;;;;;;;;;;5035608;28;20049;-71
2022/01/11 11:21:10;;;;;;;0.35;0.22;;;;;;;;;;5046549;28;20029;-69
2022/01/11 11:23:35;;;;;;;0.45;0.20;;;;;;;;;;5043381;28;20057;-70
2022/01/11 11:26:00;;;;;;;0.47;0.20;;;;;;;;;;5037638;28;20122;-70
2022/01/11 11:28:25;;;;;;;0.47;0.20;;;;;;;;;;5047553;28;20031;-71
2022/01/11 11:30:51;;;;;;;3.30;0.20;;;;;;;;;;5037645;28;20032;-67
2022/01/11 11:33:16;;;;;;;0.60;0.20;;;;;;;;;;5043166;28;20387;-65
2022/01/11 11:35:41;;;;;;;0.80;0.20;;;;;;;;;;5044366;28;20028;-69
2022/01/11 11:38:08;;;;;;;2.77;0.63;;;;;;;;;;5034658;28;20018;-66
2022/01/11 11:40:34;;;;;;;1.08;0.08;;;;;;;;;;5048671;28;20025;-68
2022/01/11 11:43:00;;;;;;;0.98;0.28;;;;;;;;;;5031612;28;20017;-67
2022/01/11 11:45:27;;;;;;;0.47;0.20;;;;;;;;;;5041924;28;20464;-68
2022/01/11 11:48:01;;;;;;;0.82;0.20;;;;;;;;;;5038236;28;20053;-69
2022/01/11 11:50:26;;;;;;;0.40;0.32;;;;;;;;;;5036046;28;20016;-72
2022/01/11 11:52:52;;;;;;;2.13;0.43;;;;;;;;;;5033126;28;20030;-69
2022/01/11 11:55:23;;;;;;;0.20;0.10;;;;;;;;;;5031356;28;20317;-66
2022/01/11 11:57:50;;;;;;;0.50;0.20;;;;;;;;;;5031454;28;20029;-68
2022/01/11 12:00:18;;;;;;;0.75;0.30;;;;;;;;;;5029546;28;20100;-69
2022/01/11 12:02:44;;;;;;;1.05;0.17;;;;;;;;;;5029084;28;20017;-69
2022/01/11 12:05:11;;;;;;;0.40;0.20;;;;;;;;;;5031823;28;20045;-68
2022/01/11 12:07:42;;;;;;;3.50;0.30;;;;;;;;;;5030932;28;20025;-72
2022/01/11 12:10:12;;;;;;;2.08;0.47;;;;;;;;;;5030332;28;20048;-67
2022/01/11 12:12:49;;;;;;;2.88;0.20;;;;;;;;;;5037019;28;20090;-65
2022/01/11 12:15:35;;;;;;;0.10;0.05;;;;;;;;;;5038041;28;20036;-66
2022/01/11 12:18:00;;;;;;;2.05;0.32;;;;;;;;;;5030754;28;20025;-65
2022/01/11 12:20:44;;;;;;;4.15;0.50;;;;;;;;;;5043007;28;20018;-64
2022/01/11 12:23:10;;;;;;;1.05;0.20;;;;;;;;;;5047350;28;20043;-66
2022/01/11 12:25:42;;;;;;;0.73;0.30;;;;;;;;;;5041776;28;20031;-65
2022/01/11 12:28:14;;;;;;;2.42;0.75;;;;;;;;;;5045021;28;20067;-67
2022/01/11 12:30:39;;;;;;;1.15;0.40;;;;;;;;;;5044397;28;20060;-65
2022/01/11 12:33:06;;;;;;;0.43;0.25;;;;;;;;;;5042814;28;20064;-68
2022/01/11 12:35:32;;;;;;;2.90;0.43;;;;;;;;;;5043140;28;20512;-69
2022/01/11 12:38:07;;;;;;;1.98;0.68;;;;;;;;;;5040297;28;20059;-67
2022/01/11 12:40:38;;;;;;;1.10;0.30;;;;;;;;;;5039204;28;20377;-69
2022/01/11 12:43:04;;;;;;;1.33;0.30;;;;;;;;;;5047931;28;20075;-66
2022/01/11 12:45:47;;;;;;;0.93;0.20;;;;;;;;;;5047635;28;20021;-67
2022/01/11 12:48:13;;;;;;;2.78;0.57;;;;;;;;;;5038189;28;20024;-68
2022/01/11 12:50:59;;;;;;;2.35;0.40;;;;;;;;;;5034743;28;20374;-68
2022/01/11 12:53:25;;;;;;;0.85;0.40;;;;;;;;;;5042940;28;20416;-68
2022/01/11 12:55:54;;;;;;;3.43;0.53;;;;;;;;;;5043738;28;20323;-68
2022/01/11 12:58:20;;;;;;;0.55;0.22;;;;;;;;;;5050010;28;20329;-63
2022/01/11 13:00:45;;;;;;;2.65;0.50;;;;;;;;;;5036247;28;20523;-71
2022/01/11 13:03:11;;;;;;;0.93;0.27;;;;;;;;;;5039182;28;20043;-70
2022/01/11 13:05:40;;;;;;;0.50;0.20;;;;;;;;;;5043719;28;20294;-69
2022/01/11 13:08:07;;;;;;;2.05;0.30;;;;;;;;;;5039957;28;20261;-65
2022/01/11 13:10:32;;;;;;;0.85;0.40;;;;;;;;;;5038213;28;20025;-66
2022/01/11 13:13:14;;;;;;;1.93;0.30;;;;;;;;;;5035023;28;20029;-66
2022/01/11 13:15:41;;;;;;;1.52;0.28;;;;;;;;;;5036305;28;20041;-70
2022/01/11 13:18:10;;;;;;;2.50;0.60;;;;;;;;;;5040189;28;20455;-63
2022/01/11 13:20:36;;;;;;;0.65;0.20;;;;;;;;;;5036472;28;20070;-72
2022/01/11 13:23:13;;;;;;;0.52;0.25;;;;;;;;;;5036943;28;20021;-66
2022/01/11 13:25:40;;;;;;;0.50;0.30;;;;;;;;;;5040046;28;20044;-67
2022/01/11 13:28:05;;;;;;;0.50;0.30;;;;;;;;;;5043701;28;20029;-62
2022/01/11 13:30:38;;;;;;;0.50;0.30;;;;;;;;;;5035625;28;20029;-68
2022/01/11 13:33:04;;;;;;;0.95;0.55;;;;;;;;;;5033165;28;20017;-65
2022/01/11 13:35:29;;;;;;;0.75;0.50;;;;;;;;;;5034037;28;20033;-64
2022/01/11 13:37:55;;;;;;;0.85;0.40;;;;;;;;;;5035247;28;20024;-66
2022/01/11 13:40:24;;;;;;;0.60;0.30;;;;;;;;;;5032606;28;20056;-68
2022/01/11 13:42:58;;;;;;;1.40;0.55;;;;;;;;;;5032631;28;20092;-68
2022/01/11 13:45:36;;;;;;;1.17;0.60;;;;;;;;;;5033507;28;20013;-66
2022/01/11 13:48:09;;;;;;;0.90;0.45;;;;;;;;;;5030434;28;20438;-68
2022/01/11 13:50:45;;;;;;;0.85;0.30;;;;;;;;;;5031895;28;20428;-68
2022/01/11 13:53:18;;;;;;;1.20;0.30;;;;;;;;;;5034474;28;20017;-67
2022/01/11 13:55:44;;;;;;;0.30;0.20;;;;;;;;;;5031984;28;20096;-69
2022/01/11 13:58:09;;;;;;;0.73;0.32;;;;;;;;;;5032635;28;20465;-68
2022/01/11 14:00:36;;;;;;;0.87;0.33;;;;;;;;;;5028835;28;20025;-68
2022/01/11 14:03:10;;;;;;;1.55;0.30;;;;;;;;;;5030095;28;20263;-69
2022/01/11 14:05:35;;;;;;;1.30;0.50;;;;;;;;;;5031768;28;20046;-67
2022/01/11 14:08:05;;;;;;;0.77;0.23;;;;;;;;;;5032882;28;20095;-66
2022/01/11 14:10:36;;;;;;;1.45;0.30;;;;;;;;;;5027582;28;20281;-68
2022/01/11 14:13:04;;;;;;;0.45;0.25;;;;;;;;;;5031278;28;20021;-66
2022/01/11 14:15:29;;;;;;;0.43;0.17;;;;;;;;;;5032925;28;20389;-68
2022/01/11 14:17:55;;;;;;;0.83;0.40;;;;;;;;;;5036759;28;20029;-69
2022/01/11 14:20:27;;;;;;;0.50;0.20;;;;;;;;;;5030491;28;20021;-66
2022/01/11 14:22:54;;;;;;;0.20;0.20;;;;;;;;;;5031551;28;20021;-67
2022/01/11 14:25:21;;;;;;;0.50;0.28;;;;;;;;;;5029470;28;20028;-66
2022/01/11 14:27:55;;;;;;;1.05;0.30;;;;;;;;;;5029789;28;20437;-66
2022/01/11 14:30:20;;;;;;;0.43;0.20;;;;;;;;;;5024873;28;20021;-63
2022/01/11 14:32:45;;;;;;;1.20;0.40;;;;;;;;;;5028705;28;20390;-64
2022/01/11 14:35:11;;;;;;;1.58;0.32;;;;;;;;;;5032067;28;20317;-65
2022/01/11 14:37:36;;;;;;;0.38;0.20;;;;;;;;;;5035859;28;20109;-65
2022/01/11 14:40:04;;;;;;;0.80;0.30;;;;;;;;;;5035301;28;20017;-64